sensor_id;sensor_type;location;lat;lon;timestamp;P1;durP1;ratioP1;P2;durP2;ratioP2
7667;SDS011;3876;42.204;24.686;2024-01-07T00:02:26;5.03;;;2.40;;
7667;SDS011;3876;42.204;24.686;2024-01-07T00:04:54;2.27;;;2.07;;
7667;SDS011;3876;42.204;24.686;2024-01-07T00:07:21;7.43;;;2.83;;
7667;SDS011;3876;42.204;24.686;2024-01-07T00:09:47;1.43;;;1.43;;
7667;SDS011;3876;42.204;24.686;2024-01-07T00:12:14;2.93;;;2.10;;
7667;SDS011;3876;42.204;24.686;2024-01-07T00:14:42;1.20;;;1.20;;
7667;SDS011;3876;42.204;24.686;2024-01-07T00:17:09;0.97;;;0.97;;
7667;SDS011;3876;42.204;24.686;2024-01-07T00:19:36;3.77;;;1.97;;
7667;SDS011;3876;42.204;24.686;2024-01-07T00:22:06;3.77;;;1.80;;
7667;SDS011;3876;42.204;24.686;2024-01-07T00:24:32;3.50;;;1.40;;
7667;SDS011;3876;42.204;24.686;2024-01-07T00:26:59;3.10;;;3.07;;
7667;SDS011;3876;42.204;24.686;2024-01-07T00:29:26;3.17;;;1.37;;
7667;SDS011;3876;42.204;24.686;2024-01-07T00:31:52;1.30;;;1.30;;
7667;SDS011;3876;42.204;24.686;2024-01-07T00:34:19;2.43;;;2.33;;
7667;SDS011;3876;42.204;24.686;2024-01-07T00:36:46;3.87;;;3.53;;
7667;SDS011;3876;42.204;24.686;2024-01-07T00:39:14;4.00;;;2.77;;
7667;SDS011;3876;42.204;24.686;2024-01-07T00:41:41;2.97;;;2.90;;
7667;SDS011;3876;42.204;24.686;2024-01-07T00:44:07;1.67;;;1.67;;
7667;SDS011;3876;42.204;24.686;2024-01-07T00:46:34;1.30;;;1.30;;
7667;SDS011;3876;42.204;24.686;2024-01-07T00:49:01;1.30;;;1.20;;
7667;SDS011;3876;42.204;24.686;2024-01-07T00:51:27;3.00;;;2.70;;
7667;SDS011;3876;42.204;24.686;2024-01-07T00:53:54;1.87;;;1.87;;
7667;SDS011;3876;42.204;24.686;2024-01-07T00:56:22;2.80;;;2.70;;
7667;SDS011;3876;42.204;24.686;2024-01-07T00:58:51;1.17;;;1.17;;
7667;SDS011;3876;42.204;24.686;2024-01-07T01:01:18;1.57;;;1.57;;
7667;SDS011;3876;42.204;24.686;2024-01-07T01:03:45;2.20;;;2.10;;
7667;SDS011;3876;42.204;24.686;2024-01-07T01:06:12;4.53;;;2.90;;
7667;SDS011;3876;42.204;24.686;2024-01-07T01:08:39;1.93;;;1.90;;
7667;SDS011;3876;42.204;24.686;2024-01-07T01:11:08;3.27;;;3.07;;
7667;SDS011;3876;42.204;24.686;2024-01-07T01:13:36;1.50;;;1.50;;
7667;SDS011;3876;42.204;24.686;2024-01-07T01:16:03;3.43;;;1.93;;
7667;SDS011;3876;42.204;24.686;2024-01-07T01:18:30;4.90;;;3.70;;
7667;SDS011;3876;42.204;24.686;2024-01-07T01:20:57;1.80;;;1.77;;
7667;SDS011;3876;42.204;24.686;2024-01-07T01:23:23;1.70;;;1.60;;
7667;SDS011;3876;42.204;24.686;2024-01-07T01:25:50;2.07;;;2.07;;
7667;SDS011;3876;42.204;24.686;2024-01-07T01:28:17;5.13;;;2.47;;
7667;SDS011;3876;42.204;24.686;2024-01-07T01:30:45;2.73;;;2.57;;
7667;SDS011;3876;42.204;24.686;2024-01-07T01:33:12;5.20;;;2.80;;
7667;SDS011;3876;42.204;24.686;2024-01-07T01:35:38;3.43;;;3.23;;
7667;SDS011;3876;42.204;24.686;2024-01-07T01:38:05;1.83;;;1.70;;
7667;SDS011;3876;42.204;24.686;2024-01-07T01:40:32;2.40;;;1.73;;
7667;SDS011;3876;42.204;24.686;2024-01-07T01:42:59;1.87;;;1.77;;
7667;SDS011;3876;42.204;24.686;2024-01-07T01:45:26;2.90;;;2.70;;
7667;SDS011;3876;42.204;24.686;2024-01-07T01:47:54;3.10;;;1.50;;
7667;SDS011;3876;42.204;24.686;2024-01-07T01:50:21;3.07;;;2.97;;
7667;SDS011;3876;42.204;24.686;2024-01-07T01:52:48;0.97;;;0.97;;
7667;SDS011;3876;42.204;24.686;2024-01-07T01:55:16;3.20;;;1.70;;
7667;SDS011;3876;42.204;24.686;2024-01-07T01:57:43;1.90;;;1.80;;
7667;SDS011;3876;42.204;24.686;2024-01-07T02:00:12;2.17;;;2.07;;
7667;SDS011;3876;42.204;24.686;2024-01-07T02:02:39;2.47;;;2.23;;
7667;SDS011;3876;42.204;24.686;2024-01-07T02:05:07;2.23;;;2.13;;
7667;SDS011;3876;42.204;24.686;2024-01-07T02:07:34;3.57;;;1.73;;
7667;SDS011;3876;42.204;24.686;2024-01-07T02:10:01;1.60;;;1.60;;
7667;SDS011;3876;42.204;24.686;2024-01-07T02:12:28;1.47;;;1.37;;
7667;SDS011;3876;42.204;24.686;2024-01-07T02:14:55;1.53;;;1.47;;
7667;SDS011;3876;42.204;24.686;2024-01-07T02:17:21;2.33;;;2.23;;
7667;SDS011;3876;42.204;24.686;2024-01-07T02:19:48;1.83;;;1.73;;
7667;SDS011;3876;42.204;24.686;2024-01-07T02:22:16;2.70;;;2.60;;
7667;SDS011;3876;42.204;24.686;2024-01-07T02:24:45;1.73;;;1.63;;
7667;SDS011;3876;42.204;24.686;2024-01-07T02:27:12;1.60;;;1.57;;
7667;SDS011;3876;42.204;24.686;2024-01-07T02:29:38;2.57;;;2.50;;
7667;SDS011;3876;42.204;24.686;2024-01-07T02:32:05;1.67;;;1.67;;
7667;SDS011;3876;42.204;24.686;2024-01-07T02:34:32;7.90;;;2.53;;
7667;SDS011;3876;42.204;24.686;2024-01-07T02:36:59;2.13;;;2.00;;
7667;SDS011;3876;42.204;24.686;2024-01-07T02:39:26;2.10;;;1.90;;
7667;SDS011;3876;42.204;24.686;2024-01-07T02:41:54;2.53;;;2.30;;
7667;SDS011;3876;42.204;24.686;2024-01-07T02:44:20;1.93;;;1.83;;
7667;SDS011;3876;42.204;24.686;2024-01-07T02:46:47;2.27;;;2.17;;
7667;SDS011;3876;42.204;24.686;2024-01-07T02:49:14;2.60;;;2.50;;
7667;SDS011;3876;42.204;24.686;2024-01-07T02:51:40;3.73;;;2.27;;
7667;SDS011;3876;42.204;24.686;2024-01-07T02:54:07;4.93;;;3.33;;
7667;SDS011;3876;42.204;24.686;2024-01-07T02:56:34;4.23;;;2.27;;
7667;SDS011;3876;42.204;24.686;2024-01-07T02:59:02;4.47;;;2.30;;
7667;SDS011;3876;42.204;24.686;2024-01-07T03:01:29;3.13;;;2.97;;
7667;SDS011;3876;42.204;24.686;2024-01-07T03:03:56;4.23;;;3.77;;
7667;SDS011;3876;42.204;24.686;2024-01-07T03:06:25;6.47;;;3.83;;
7667;SDS011;3876;42.204;24.686;2024-01-07T03:08:52;2.67;;;2.47;;
7667;SDS011;3876;42.204;24.686;2024-01-07T03:11:19;2.73;;;2.50;;
7667;SDS011;3876;42.204;24.686;2024-01-07T03:13:46;1.10;;;1.07;;
7667;SDS011;3876;42.204;24.686;2024-01-07T03:16:20;2.40;;;2.30;;
7667;SDS011;3876;42.204;24.686;2024-01-07T03:18:46;3.10;;;2.80;;
7667;SDS011;3876;42.204;24.686;2024-01-07T03:21:17;2.87;;;2.70;;
7667;SDS011;3876;42.204;24.686;2024-01-07T03:23:44;3.43;;;3.33;;
7667;SDS011;3876;42.204;24.686;2024-01-07T03:26:11;5.00;;;2.40;;
7667;SDS011;3876;42.204;24.686;2024-01-07T03:28:38;2.87;;;2.67;;
7667;SDS011;3876;42.204;24.686;2024-01-07T03:31:05;4.67;;;2.97;;
7667;SDS011;3876;42.204;24.686;2024-01-07T03:33:33;3.47;;;2.17;;
7667;SDS011;3876;42.204;24.686;2024-01-07T03:36:00;2.67;;;2.57;;
7667;SDS011;3876;42.204;24.686;2024-01-07T03:38:27;2.27;;;2.17;;
7667;SDS011;3876;42.204;24.686;2024-01-07T03:40:53;2.57;;;2.37;;
7667;SDS011;3876;42.204;24.686;2024-01-07T03:43:20;3.13;;;2.17;;
7667;SDS011;3876;42.204;24.686;2024-01-07T03:45:47;4.83;;;4.17;;
7667;SDS011;3876;42.204;24.686;2024-01-07T03:48:14;3.87;;;3.67;;
7667;SDS011;3876;42.204;24.686;2024-01-07T03:50:42;2.87;;;2.63;;
7667;SDS011;3876;42.204;24.686;2024-01-07T03:53:09;2.10;;;2.00;;
7667;SDS011;3876;42.204;24.686;2024-01-07T03:55:36;2.80;;;2.70;;
7667;SDS011;3876;42.204;24.686;2024-01-07T03:58:02;5.63;;;3.03;;
7667;SDS011;3876;42.204;24.686;2024-01-07T04:00:30;4.10;;;3.60;;
7667;SDS011;3876;42.204;24.686;2024-01-07T04:02:57;2.30;;;2.17;;
7667;SDS011;3876;42.204;24.686;2024-01-07T04:05:24;8.43;;;3.40;;
7667;SDS011;3876;42.204;24.686;2024-01-07T04:07:52;6.33;;;2.73;;
7667;SDS011;3876;42.204;24.686;2024-01-07T04:10:19;4.17;;;2.53;;
7667;SDS011;3876;42.204;24.686;2024-01-07T04:12:46;5.23;;;3.53;;
7667;SDS011;3876;42.204;24.686;2024-01-07T04:15:13;3.53;;;3.20;;
7667;SDS011;3876;42.204;24.686;2024-01-07T04:17:40;3.53;;;3.30;;
7667;SDS011;3876;42.204;24.686;2024-01-07T04:20:07;3.00;;;2.80;;
7667;SDS011;3876;42.204;24.686;2024-01-07T04:22:34;2.77;;;1.93;;
7667;SDS011;3876;42.204;24.686;2024-01-07T04:25:03;2.20;;;1.87;;
7667;SDS011;3876;42.204;24.686;2024-01-07T04:27:33;3.60;;;3.30;;
7667;SDS011;3876;42.204;24.686;2024-01-07T04:29:59;3.40;;;3.30;;
7667;SDS011;3876;42.204;24.686;2024-01-07T04:32:26;3.23;;;2.93;;
7667;SDS011;3876;42.204;24.686;2024-01-07T04:34:54;3.17;;;2.93;;
7667;SDS011;3876;42.204;24.686;2024-01-07T04:37:22;4.27;;;3.87;;
7667;SDS011;3876;42.204;24.686;2024-01-07T04:39:49;4.40;;;4.10;;
7667;SDS011;3876;42.204;24.686;2024-01-07T04:42:17;3.97;;;3.77;;
7667;SDS011;3876;42.204;24.686;2024-01-07T04:44:44;7.07;;;5.00;;
7667;SDS011;3876;42.204;24.686;2024-01-07T04:47:25;5.03;;;4.57;;
7667;SDS011;3876;42.204;24.686;2024-01-07T04:49:52;3.77;;;3.37;;
7667;SDS011;3876;42.204;24.686;2024-01-07T04:52:20;5.80;;;3.00;;
7667;SDS011;3876;42.204;24.686;2024-01-07T04:54:47;4.37;;;4.07;;
7667;SDS011;3876;42.204;24.686;2024-01-07T04:57:14;5.53;;;2.30;;
7667;SDS011;3876;42.204;24.686;2024-01-07T04:59:42;6.93;;;3.47;;
7667;SDS011;3876;42.204;24.686;2024-01-07T05:02:10;3.33;;;3.07;;
7667;SDS011;3876;42.204;24.686;2024-01-07T05:04:36;2.90;;;2.53;;
7667;SDS011;3876;42.204;24.686;2024-01-07T05:07:03;3.53;;;3.27;;
7667;SDS011;3876;42.204;24.686;2024-01-07T05:11:58;2.53;;;2.33;;
7667;SDS011;3876;42.204;24.686;2024-01-07T05:14:24;2.73;;;2.57;;
7667;SDS011;3876;42.204;24.686;2024-01-07T05:16:54;3.03;;;2.83;;
7667;SDS011;3876;42.204;24.686;2024-01-07T05:19:21;5.13;;;3.10;;
7667;SDS011;3876;42.204;24.686;2024-01-07T05:21:48;5.73;;;5.43;;
7667;SDS011;3876;42.204;24.686;2024-01-07T05:24:15;6.10;;;3.77;;
7667;SDS011;3876;42.204;24.686;2024-01-07T05:26:42;2.90;;;2.70;;
7667;SDS011;3876;42.204;24.686;2024-01-07T05:29:09;5.07;;;3.83;;
7667;SDS011;3876;42.204;24.686;2024-01-07T05:31:37;4.37;;;3.90;;
7667;SDS011;3876;42.204;24.686;2024-01-07T05:34:05;4.27;;;3.63;;
7667;SDS011;3876;42.204;24.686;2024-01-07T05:36:32;5.10;;;3.93;;
7667;SDS011;3876;42.204;24.686;2024-01-07T05:38:59;2.80;;;2.17;;
7667;SDS011;3876;42.204;24.686;2024-01-07T05:41:25;2.53;;;2.43;;
7667;SDS011;3876;42.204;24.686;2024-01-07T05:43:52;3.63;;;3.43;;
7667;SDS011;3876;42.204;24.686;2024-01-07T05:46:19;10.57;;;4.00;;
7667;SDS011;3876;42.204;24.686;2024-01-07T05:48:47;3.20;;;2.87;;
7667;SDS011;3876;42.204;24.686;2024-01-07T05:51:16;3.40;;;2.90;;
7667;SDS011;3876;42.204;24.686;2024-01-07T05:53:44;3.27;;;3.10;;
7667;SDS011;3876;42.204;24.686;2024-01-07T05:56:11;7.93;;;3.03;;
7667;SDS011;3876;42.204;24.686;2024-01-07T05:58:38;2.37;;;2.17;;
7667;SDS011;3876;42.204;24.686;2024-01-07T06:01:05;3.63;;;2.90;;
7667;SDS011;3876;42.204;24.686;2024-01-07T06:03:33;2.87;;;2.67;;
7667;SDS011;3876;42.204;24.686;2024-01-07T06:06:00;4.37;;;3.33;;
7667;SDS011;3876;42.204;24.686;2024-01-07T06:08:28;5.33;;;3.37;;
7667;SDS011;3876;42.204;24.686;2024-01-07T06:10:54;7.90;;;3.73;;
7667;SDS011;3876;42.204;24.686;2024-01-07T06:13:21;2.73;;;2.53;;
7667;SDS011;3876;42.204;24.686;2024-01-07T06:15:48;7.63;;;4.63;;
7667;SDS011;3876;42.204;24.686;2024-01-07T06:18:15;3.37;;;3.17;;
7667;SDS011;3876;42.204;24.686;2024-01-07T06:20:41;16.13;;;4.33;;
7667;SDS011;3876;42.204;24.686;2024-01-07T06:23:08;6.43;;;4.43;;
7667;SDS011;3876;42.204;24.686;2024-01-07T06:25:36;6.27;;;5.77;;
7667;SDS011;3876;42.204;24.686;2024-01-07T06:28:04;10.83;;;6.53;;
7667;SDS011;3876;42.204;24.686;2024-01-07T06:30:31;2.40;;;2.20;;
7667;SDS011;3876;42.204;24.686;2024-01-07T06:32:58;3.63;;;3.50;;
7667;SDS011;3876;42.204;24.686;2024-01-07T06:35:24;3.57;;;3.40;;
7667;SDS011;3876;42.204;24.686;2024-01-07T06:37:51;3.57;;;2.63;;
7667;SDS011;3876;42.204;24.686;2024-01-07T06:40:18;4.07;;;3.27;;
7667;SDS011;3876;42.204;24.686;2024-01-07T06:42:46;6.57;;;2.70;;
7667;SDS011;3876;42.204;24.686;2024-01-07T06:45:13;9.27;;;5.03;;
7667;SDS011;3876;42.204;24.686;2024-01-07T06:47:41;5.60;;;5.30;;
7667;SDS011;3876;42.204;24.686;2024-01-07T06:50:08;6.17;;;4.47;;
7667;SDS011;3876;42.204;24.686;2024-01-07T06:52:35;8.50;;;4.90;;
7667;SDS011;3876;42.204;24.686;2024-01-07T06:55:02;7.07;;;4.53;;
7667;SDS011;3876;42.204;24.686;2024-01-07T06:57:29;5.40;;;4.80;;
7667;SDS011;3876;42.204;24.686;2024-01-07T06:59:57;11.73;;;7.37;;
7667;SDS011;3876;42.204;24.686;2024-01-07T07:02:23;8.50;;;6.13;;
7667;SDS011;3876;42.204;24.686;2024-01-07T07:04:50;10.70;;;8.33;;
7667;SDS011;3876;42.204;24.686;2024-01-07T07:07:17;22.83;;;9.47;;
7667;SDS011;3876;42.204;24.686;2024-01-07T07:09:43;16.07;;;6.53;;
7667;SDS011;3876;42.204;24.686;2024-01-07T07:12:11;13.07;;;8.73;;
7667;SDS011;3876;42.204;24.686;2024-01-07T07:14:38;8.60;;;5.33;;
7667;SDS011;3876;42.204;24.686;2024-01-07T07:17:06;10.93;;;6.00;;
7667;SDS011;3876;42.204;24.686;2024-01-07T07:19:33;4.70;;;4.37;;
7667;SDS011;3876;42.204;24.686;2024-01-07T07:22:00;6.27;;;3.97;;
7667;SDS011;3876;42.204;24.686;2024-01-07T07:24:26;5.83;;;4.60;;
7667;SDS011;3876;42.204;24.686;2024-01-07T07:26:53;4.50;;;3.40;;
7667;SDS011;3876;42.204;24.686;2024-01-07T07:29:20;3.43;;;2.93;;
7667;SDS011;3876;42.204;24.686;2024-01-07T07:31:46;2.97;;;2.87;;
7667;SDS011;3876;42.204;24.686;2024-01-07T07:34:15;2.40;;;2.07;;
7667;SDS011;3876;42.204;24.686;2024-01-07T07:36:41;3.50;;;3.13;;
7667;SDS011;3876;42.204;24.686;2024-01-07T07:39:10;2.93;;;2.63;;
7667;SDS011;3876;42.204;24.686;2024-01-07T07:41:36;8.40;;;2.57;;
7667;SDS011;3876;42.204;24.686;2024-01-07T07:44:03;3.77;;;3.47;;
7667;SDS011;3876;42.204;24.686;2024-01-07T07:46:30;5.70;;;2.10;;
7667;SDS011;3876;42.204;24.686;2024-01-07T07:48:57;2.87;;;2.77;;
7667;SDS011;3876;42.204;24.686;2024-01-07T07:51:25;10.33;;;2.97;;
7667;SDS011;3876;42.204;24.686;2024-01-07T07:53:52;3.00;;;2.80;;
7667;SDS011;3876;42.204;24.686;2024-01-07T07:56:19;6.10;;;3.70;;
7667;SDS011;3876;42.204;24.686;2024-01-07T07:58:46;3.30;;;3.00;;
7667;SDS011;3876;42.204;24.686;2024-01-07T08:01:13;3.13;;;2.23;;
7667;SDS011;3876;42.204;24.686;2024-01-07T08:03:40;2.20;;;2.00;;
7667;SDS011;3876;42.204;24.686;2024-01-07T08:06:07;3.60;;;3.27;;
7667;SDS011;3876;42.204;24.686;2024-01-07T08:08:35;5.47;;;4.67;;
7667;SDS011;3876;42.204;24.686;2024-01-07T08:11:02;3.80;;;3.50;;
7667;SDS011;3876;42.204;24.686;2024-01-07T08:13:31;3.63;;;3.47;;
7667;SDS011;3876;42.204;24.686;2024-01-07T08:15:57;9.43;;;3.80;;
7667;SDS011;3876;42.204;24.686;2024-01-07T08:18:24;4.43;;;2.10;;
7667;SDS011;3876;42.204;24.686;2024-01-07T08:20:51;7.37;;;2.10;;
7667;SDS011;3876;42.204;24.686;2024-01-07T08:23:18;1.87;;;1.73;;
7667;SDS011;3876;42.204;24.686;2024-01-07T08:25:46;10.20;;;2.03;;
7667;SDS011;3876;42.204;24.686;2024-01-07T08:28:12;2.73;;;2.47;;
7667;SDS011;3876;42.204;24.686;2024-01-07T08:30:39;4.33;;;4.03;;
7667;SDS011;3876;42.204;24.686;2024-01-07T08:33:06;2.73;;;2.63;;
7667;SDS011;3876;42.204;24.686;2024-01-07T08:35:33;2.77;;;2.57;;
7667;SDS011;3876;42.204;24.686;2024-01-07T08:37:59;3.37;;;3.10;;
7667;SDS011;3876;42.204;24.686;2024-01-07T08:40:26;6.27;;;4.03;;
7667;SDS011;3876;42.204;24.686;2024-01-07T08:42:55;4.63;;;4.23;;
7667;SDS011;3876;42.204;24.686;2024-01-07T08:45:22;3.50;;;3.20;;
7667;SDS011;3876;42.204;24.686;2024-01-07T08:47:49;3.97;;;3.67;;
7667;SDS011;3876;42.204;24.686;2024-01-07T08:50:16;2.93;;;2.67;;
7667;SDS011;3876;42.204;24.686;2024-01-07T08:52:42;7.50;;;3.30;;
7667;SDS011;3876;42.204;24.686;2024-01-07T08:55:11;5.70;;;2.10;;
7667;SDS011;3876;42.204;24.686;2024-01-07T08:57:38;1.83;;;1.73;;
7667;SDS011;3876;42.204;24.686;2024-01-07T09:00:06;5.40;;;3.03;;
7667;SDS011;3876;42.204;24.686;2024-01-07T09:02:33;2.87;;;2.77;;
7667;SDS011;3876;42.204;24.686;2024-01-07T09:05:01;2.17;;;2.07;;
7667;SDS011;3876;42.204;24.686;2024-01-07T09:07:27;2.40;;;2.27;;
7667;SDS011;3876;42.204;24.686;2024-01-07T09:09:54;5.10;;;1.93;;
7667;SDS011;3876;42.204;24.686;2024-01-07T09:12:24;2.00;;;1.83;;
7667;SDS011;3876;42.204;24.686;2024-01-07T09:14:51;1.33;;;1.23;;
7667;SDS011;3876;42.204;24.686;2024-01-07T09:17:19;1.27;;;1.27;;
7667;SDS011;3876;42.204;24.686;2024-01-07T09:19:46;1.90;;;1.90;;
7667;SDS011;3876;42.204;24.686;2024-01-07T09:22:13;1.67;;;1.57;;
7667;SDS011;3876;42.204;24.686;2024-01-07T09:24:40;9.33;;;2.13;;
7667;SDS011;3876;42.204;24.686;2024-01-07T09:27:06;1.73;;;1.63;;
7667;SDS011;3876;42.204;24.686;2024-01-07T09:29:33;1.60;;;1.47;;
7667;SDS011;3876;42.204;24.686;2024-01-07T09:32:00;6.03;;;3.13;;
7667;SDS011;3876;42.204;24.686;2024-01-07T09:34:28;2.95;;;2.75;;
7667;SDS011;3876;42.204;24.686;2024-01-07T09:36:55;2.93;;;2.63;;
7667;SDS011;3876;42.204;24.686;2024-01-07T09:39:21;1.73;;;1.63;;
7667;SDS011;3876;42.204;24.686;2024-01-07T09:41:48;4.93;;;1.63;;
7667;SDS011;3876;42.204;24.686;2024-01-07T09:44:15;2.17;;;2.07;;
7667;SDS011;3876;42.204;24.686;2024-01-07T09:46:43;2.40;;;1.83;;
7667;SDS011;3876;42.204;24.686;2024-01-07T09:49:16;1.57;;;1.53;;
7667;SDS011;3876;42.204;24.686;2024-01-07T09:51:45;1.93;;;1.83;;
7667;SDS011;3876;42.204;24.686;2024-01-07T09:54:12;1.23;;;1.23;;
7667;SDS011;3876;42.204;24.686;2024-01-07T09:56:42;2.10;;;1.83;;
7667;SDS011;3876;42.204;24.686;2024-01-07T09:59:17;3.87;;;2.60;;
7667;SDS011;3876;42.204;24.686;2024-01-07T10:01:44;3.77;;;2.67;;
7667;SDS011;3876;42.204;24.686;2024-01-07T10:04:12;2.07;;;1.87;;
7667;SDS011;3876;42.204;24.686;2024-01-07T10:06:38;3.87;;;2.33;;
7667;SDS011;3876;42.204;24.686;2024-01-07T10:09:06;2.30;;;2.20;;
7667;SDS011;3876;42.204;24.686;2024-01-07T10:11:33;1.07;;;1.07;;
7667;SDS011;3876;42.204;24.686;2024-01-07T10:14:00;1.83;;;1.77;;
7667;SDS011;3876;42.204;24.686;2024-01-07T10:16:27;0.70;;;0.70;;
7667;SDS011;3876;42.204;24.686;2024-01-07T10:18:54;0.80;;;0.77;;
7667;SDS011;3876;42.204;24.686;2024-01-07T10:21:22;0.63;;;0.63;;
7667;SDS011;3876;42.204;24.686;2024-01-07T10:23:49;1.00;;;1.00;;
7667;SDS011;3876;42.204;24.686;2024-01-07T10:26:17;1.80;;;1.80;;
7667;SDS011;3876;42.204;24.686;2024-01-07T10:28:43;1.90;;;1.80;;
7667;SDS011;3876;42.204;24.686;2024-01-07T10:31:10;6.07;;;4.30;;
7667;SDS011;3876;42.204;24.686;2024-01-07T10:33:37;5.47;;;2.60;;
7667;SDS011;3876;42.204;24.686;2024-01-07T10:36:06;1.50;;;1.40;;
7667;SDS011;3876;42.204;24.686;2024-01-07T10:38:33;3.53;;;3.17;;
7667;SDS011;3876;42.204;24.686;2024-01-07T10:40:59;2.77;;;2.57;;
7667;SDS011;3876;42.204;24.686;2024-01-07T10:43:29;0.70;;;0.70;;
7667;SDS011;3876;42.204;24.686;2024-01-07T10:45:57;6.43;;;4.13;;
7667;SDS011;3876;42.204;24.686;2024-01-07T10:48:29;11.80;;;6.63;;
7667;SDS011;3876;42.204;24.686;2024-01-07T10:50:58;9.63;;;4.03;;
7667;SDS011;3876;42.204;24.686;2024-01-07T10:53:27;5.63;;;3.40;;
7667;SDS011;3876;42.204;24.686;2024-01-07T10:56:00;7.27;;;2.37;;
7667;SDS011;3876;42.204;24.686;2024-01-07T10:58:31;2.07;;;1.97;;
7667;SDS011;3876;42.204;24.686;2024-01-07T11:00:59;6.07;;;1.73;;
7667;SDS011;3876;42.204;24.686;2024-01-07T11:03:31;2.93;;;2.40;;
7667;SDS011;3876;42.204;24.686;2024-01-07T11:06:05;1.70;;;1.57;;
7667;SDS011;3876;42.204;24.686;2024-01-07T11:08:39;1.57;;;1.00;;
7667;SDS011;3876;42.204;24.686;2024-01-07T11:11:12;0.60;;;0.60;;
7667;SDS011;3876;42.204;24.686;2024-01-07T11:13:43;0.40;;;0.40;;
7667;SDS011;3876;42.204;24.686;2024-01-07T11:16:10;2.80;;;2.60;;
7667;SDS011;3876;42.204;24.686;2024-01-07T11:18:38;2.93;;;2.43;;
7667;SDS011;3876;42.204;24.686;2024-01-07T11:21:05;6.30;;;2.83;;
7667;SDS011;3876;42.204;24.686;2024-01-07T11:23:32;1.03;;;1.03;;
7667;SDS011;3876;42.204;24.686;2024-01-07T11:26:02;1.87;;;1.20;;
7667;SDS011;3876;42.204;24.686;2024-01-07T11:28:50;2.50;;;1.33;;
7667;SDS011;3876;42.204;24.686;2024-01-07T11:31:17;1.27;;;0.73;;
7667;SDS011;3876;42.204;24.686;2024-01-07T11:33:46;1.70;;;1.60;;
7667;SDS011;3876;42.204;24.686;2024-01-07T11:36:14;2.53;;;1.33;;
7667;SDS011;3876;42.204;24.686;2024-01-07T11:38:42;8.10;;;5.37;;
7667;SDS011;3876;42.204;24.686;2024-01-07T11:41:09;2.67;;;2.10;;
7667;SDS011;3876;42.204;24.686;2024-01-07T11:43:38;20.10;;;8.97;;
7667;SDS011;3876;42.204;24.686;2024-01-07T11:46:06;28.30;;;11.20;;
7667;SDS011;3876;42.204;24.686;2024-01-07T11:48:33;30.83;;;11.13;;
7667;SDS011;3876;42.204;24.686;2024-01-07T11:50:59;15.80;;;6.00;;
7667;SDS011;3876;42.204;24.686;2024-01-07T11:53:26;12.30;;;4.63;;
7667;SDS011;3876;42.204;24.686;2024-01-07T11:55:53;13.07;;;5.93;;
7667;SDS011;3876;42.204;24.686;2024-01-07T11:58:20;49.43;;;12.83;;
7667;SDS011;3876;42.204;24.686;2024-01-07T12:00:47;25.17;;;8.50;;
7667;SDS011;3876;42.204;24.686;2024-01-07T12:03:16;40.73;;;10.90;;
7667;SDS011;3876;42.204;24.686;2024-01-07T12:05:43;5.63;;;3.17;;
7667;SDS011;3876;42.204;24.686;2024-01-07T12:08:10;2.07;;;1.17;;
7667;SDS011;3876;42.204;24.686;2024-01-07T12:10:37;3.50;;;3.07;;
7667;SDS011;3876;42.204;24.686;2024-01-07T12:13:04;7.60;;;2.03;;
7667;SDS011;3876;42.204;24.686;2024-01-07T12:15:31;8.10;;;2.63;;
7667;SDS011;3876;42.204;24.686;2024-01-07T12:17:59;1.70;;;1.60;;
7667;SDS011;3876;42.204;24.686;2024-01-07T12:20:28;1.37;;;1.37;;
7667;SDS011;3876;42.204;24.686;2024-01-07T12:22:57;16.00;;;4.67;;
7667;SDS011;3876;42.204;24.686;2024-01-07T12:25:31;24.57;;;8.20;;
7667;SDS011;3876;42.204;24.686;2024-01-07T12:27:57;39.70;;;15.73;;
7667;SDS011;3876;42.204;24.686;2024-01-07T12:30:24;12.93;;;6.50;;
7667;SDS011;3876;42.204;24.686;2024-01-07T12:32:52;54.70;;;13.70;;
7667;SDS011;3876;42.204;24.686;2024-01-07T12:35:19;16.53;;;4.73;;
7667;SDS011;3876;42.204;24.686;2024-01-07T12:37:48;3.93;;;2.23;;
7667;SDS011;3876;42.204;24.686;2024-01-07T12:40:14;10.53;;;5.20;;
7667;SDS011;3876;42.204;24.686;2024-01-07T12:42:41;25.73;;;12.60;;
7667;SDS011;3876;42.204;24.686;2024-01-07T12:45:11;32.80;;;13.70;;
7667;SDS011;3876;42.204;24.686;2024-01-07T12:47:39;39.10;;;12.73;;
7667;SDS011;3876;42.204;24.686;2024-01-07T12:50:07;48.07;;;15.37;;
7667;SDS011;3876;42.204;24.686;2024-01-07T12:52:35;25.57;;;8.20;;
7667;SDS011;3876;42.204;24.686;2024-01-07T12:55:04;8.10;;;4.27;;
7667;SDS011;3876;42.204;24.686;2024-01-07T12:57:31;10.87;;;4.10;;
7667;SDS011;3876;42.204;24.686;2024-01-07T12:59:58;5.67;;;3.90;;
7667;SDS011;3876;42.204;24.686;2024-01-07T13:02:25;8.87;;;3.70;;
7667;SDS011;3876;42.204;24.686;2024-01-07T13:04:53;3.60;;;2.17;;
7667;SDS011;3876;42.204;24.686;2024-01-07T13:07:20;4.63;;;2.17;;
7667;SDS011;3876;42.204;24.686;2024-01-07T13:09:48;3.10;;;2.23;;
7667;SDS011;3876;42.204;24.686;2024-01-07T13:12:16;23.17;;;8.97;;
7667;SDS011;3876;42.204;24.686;2024-01-07T13:14:43;23.90;;;7.37;;
7667;SDS011;3876;42.204;24.686;2024-01-07T13:17:12;14.10;;;5.87;;
7667;SDS011;3876;42.204;24.686;2024-01-07T13:19:39;23.80;;;5.27;;
7667;SDS011;3876;42.204;24.686;2024-01-07T13:22:05;20.03;;;6.80;;
7667;SDS011;3876;42.204;24.686;2024-01-07T13:24:32;72.30;;;16.97;;
7667;SDS011;3876;42.204;24.686;2024-01-07T13:26:59;14.87;;;8.00;;
7667;SDS011;3876;42.204;24.686;2024-01-07T13:29:27;6.47;;;3.17;;
7667;SDS011;3876;42.204;24.686;2024-01-07T13:31:53;8.70;;;6.13;;
7667;SDS011;3876;42.204;24.686;2024-01-07T13:34:20;13.90;;;6.43;;
7667;SDS011;3876;42.204;24.686;2024-01-07T13:36:47;8.43;;;3.77;;
7667;SDS011;3876;42.204;24.686;2024-01-07T13:39:13;4.50;;;2.63;;
7667;SDS011;3876;42.204;24.686;2024-01-07T13:41:41;3.40;;;2.30;;
7667;SDS011;3876;42.204;24.686;2024-01-07T13:44:09;3.37;;;2.73;;
7667;SDS011;3876;42.204;24.686;2024-01-07T13:46:43;4.70;;;1.93;;
7667;SDS011;3876;42.204;24.686;2024-01-07T13:49:11;1.70;;;1.67;;
7667;SDS011;3876;42.204;24.686;2024-01-07T13:51:40;14.13;;;2.40;;
7667;SDS011;3876;42.204;24.686;2024-01-07T13:54:07;7.67;;;2.60;;
7667;SDS011;3876;42.204;24.686;2024-01-07T13:56:36;16.20;;;7.10;;
7667;SDS011;3876;42.204;24.686;2024-01-07T13:59:03;28.87;;;6.67;;
7667;SDS011;3876;42.204;24.686;2024-01-07T14:01:30;19.07;;;8.40;;
7667;SDS011;3876;42.204;24.686;2024-01-07T14:03:58;35.03;;;11.83;;
7667;SDS011;3876;42.204;24.686;2024-01-07T14:06:25;16.07;;;6.33;;
7667;SDS011;3876;42.204;24.686;2024-01-07T14:08:52;17.13;;;4.97;;
7667;SDS011;3876;42.204;24.686;2024-01-07T14:13:46;77.40;;;22.17;;
7667;SDS011;3876;42.204;24.686;2024-01-07T14:16:12;69.33;;;16.90;;
7667;SDS011;3876;42.204;24.686;2024-01-07T14:18:39;115.27;;;36.30;;
7667;SDS011;3876;42.204;24.686;2024-01-07T14:21:07;90.50;;;31.37;;
7667;SDS011;3876;42.204;24.686;2024-01-07T14:23:35;64.23;;;24.67;;
7667;SDS011;3876;42.204;24.686;2024-01-07T14:26:02;152.37;;;42.67;;
7667;SDS011;3876;42.204;24.686;2024-01-07T14:28:29;45.10;;;16.33;;
7667;SDS011;3876;42.204;24.686;2024-01-07T14:30:56;30.80;;;15.77;;
7667;SDS011;3876;42.204;24.686;2024-01-07T14:33:23;38.03;;;16.90;;
7667;SDS011;3876;42.204;24.686;2024-01-07T14:35:50;25.63;;;12.30;;
7667;SDS011;3876;42.204;24.686;2024-01-07T14:38:18;12.43;;;8.83;;
7667;SDS011;3876;42.204;24.686;2024-01-07T14:40:45;8.40;;;5.60;;
7667;SDS011;3876;42.204;24.686;2024-01-07T14:43:12;3.57;;;3.27;;
7667;SDS011;3876;42.204;24.686;2024-01-07T14:45:39;3.53;;;3.23;;
7667;SDS011;3876;42.204;24.686;2024-01-07T14:48:06;6.33;;;2.83;;
7667;SDS011;3876;42.204;24.686;2024-01-07T14:50:33;9.60;;;3.50;;
7667;SDS011;3876;42.204;24.686;2024-01-07T14:53:00;8.67;;;5.40;;
7667;SDS011;3876;42.204;24.686;2024-01-07T14:55:29;3.77;;;1.87;;
7667;SDS011;3876;42.204;24.686;2024-01-07T14:57:56;1.00;;;1.00;;
7667;SDS011;3876;42.204;24.686;2024-01-07T15:00:22;3.63;;;1.00;;
7667;SDS011;3876;42.204;24.686;2024-01-07T15:02:49;3.93;;;0.83;;
7667;SDS011;3876;42.204;24.686;2024-01-07T15:05:16;1.57;;;1.43;;